Kanata, Ontario

9:34 PM EDT on July 05, 2015 (GMT -0400)
Kanata Katimavik | | Change Station
CLOSE
Current Station
Personal Weather Station
Location: Ottawa, ON
Elevation: 383 ft
Nearby Weather Stations

Elev 383 ft 45.31 °N, 75.89 °W | Updated 4 minutes ago

Scattered Clouds
Scattered Clouds
72.1 °F
Feels Like 75 °F
N
0.1
Wind Variable Wind from North
Gusts 2.2 mph

Today
High -- | Low -- °F
--% Chance of Precip.
Yesterday
High -- | Low -- °F
Precip. -- in
5:21 AM 8:54 PM
Waning Gibbous, 80% visible
Pressure 30.09 in
Visibility 15.0 miles
Clouds Few 5000 ft
Scattered Clouds 22000 ft
Heat Index 75 °F
Dew Point 60 °F
Humidity 66%
Rainfall 0.00 in
Snow Depth Not available.
UV 0 out of 12
Pollen Not available.
Air Quality Not available.
Flu Activity Not available.
METAR CYOW 060100Z 27003KT 15SM FEW050 SCT220 22/15 A3009 RMK CU1CI3 CU TR SLP188 DENSITY ALT 1000FT

More Conditions Fewer Conditions

Pressure 30.09 in
Visibility 15.0 miles
Clouds Few 5000 ft
Scattered Clouds 22000 ft
Heat Index 75 °F
Dew Point 60 °F
Humidity 66%
Rainfall 0.00 in
Snow Depth Not available.
UV 0 out of 12
Pollen Not available.
Air Quality Not available.
Flu Activity Not available.
METAR CYOW 060100Z 27003KT 15SM FEW050 SCT220 22/15 A3009 RMK CU1CI3 CU TR SLP188 DENSITY ALT 1000FT

More Conditions Fewer Conditions

10-Day Weather Forecast

×

Almanac

Astronomy

Jul. 05, 2015 Rise Set
Actual Time
Civil Twilight
Nautical Twilight
Astronomical Twilight
Moon
Length of Visible Light
Length of Day
Tomorrow will be .
, % of the Moon is Illuminated

Today's Extremes

Country Highs Country Lows

Community

WunderPhotos

Upload Photos

1,835,443 photos uploaded!

WunderBlogs® & News

Nearby

Air Quality

  Air Quality AQ Index Pollutant
Not available.

Snow Depth

Station Depth Elevation

Earthquake Activity

City Distance Mag. Time & Date
Minimum magnitude displayed is 2.5.

Coastal Water Temperatures

Place Temperature

Stations

Nearby Weather Stations

Station Location Temp. Windchill Dew Point Humidity Wind Precip. Elev Updated Type